sensor_id;sensor_type;location;lat;lon;timestamp;pressure;altitude;pressure_sealevel;temperature;humidity
5238;BME280;2639;49.700;7.962;2023-12-28T08:37:20;98862.13;;;8.32;100.00
5238;BME280;2639;49.700;7.962;2023-12-28T08:38:23;98863.00;;;8.32;100.00
5238;BME280;2639;49.700;7.962;2023-12-28T08:39:25;98857.00;;;8.32;100.00
5238;BME280;2639;49.700;7.962;2023-12-28T08:40:27;98860.59;;;8.34;100.00
5238;BME280;2639;49.700;7.962;2023-12-28T08:41:29;98867.50;;;8.35;100.00
5238;BME280;2639;49.700;7.962;2023-12-28T08:42:32;98870.19;;;8.36;100.00
5238;BME280;2639;49.700;7.962;2023-12-28T08:43:34;98858.28;;;8.37;100.00
5238;BME280;2639;49.700;7.962;2023-12-28T08:44:36;98857.25;;;8.35;100.00
5238;BME280;2639;49.700;7.962;2023-12-28T08:45:39;98862.38;;;8.35;100.00
5238;BME280;2639;49.700;7.962;2023-12-28T08:46:40;98864.94;;;8.35;100.00
5238;BME280;2639;49.700;7.962;2023-12-28T08:47:43;98863.41;;;8.37;100.00
5238;BME280;2639;49.700;7.962;2023-12-28T08:48:45;98862.38;;;8.35;100.00
5238;BME280;2639;49.700;7.962;2023-12-28T08:49:48;98879.25;;;8.33;100.00
5238;BME280;2639;49.700;7.962;2023-12-28T08:50:50;98866.75;;;8.36;100.00
5238;BME280;2639;49.700;7.962;2023-12-28T08:51:53;98865.81;;;8.35;100.00
5238;BME280;2639;49.700;7.962;2023-12-28T08:52:56;98867.78;;;8.38;100.00
5238;BME280;2639;49.700;7.962;2023-12-28T08:53:59;98863.53;;;8.38;100.00
5238;BME280;2639;49.700;7.962;2023-12-28T08:55:01;98869.41;;;8.37;100.00
5238;BME280;2639;49.700;7.962;2023-12-28T08:56:13;98868.81;;;8.40;100.00
5238;BME280;2639;49.700;7.962;2023-12-28T08:57:15;98860.84;;;8.37;100.00
5238;BME280;2639;49.700;7.962;2023-12-28T08:58:29;98856.38;;;8.34;100.00
5238;BME280;2639;49.700;7.962;2023-12-28T08:59:31;98862.13;;;8.32;100.00
5238;BME280;2639;49.700;7.962;2023-12-28T09:00:33;98860.59;;;8.34;100.00
5238;BME280;2639;49.700;7.962;2023-12-28T09:01:35;98864.94;;;8.35;100.00
5238;BME280;2639;49.700;7.962;2023-12-28T09:02:38;98862.66;;;8.38;100.00
5238;BME280;2639;49.700;7.962;2023-12-28T09:03:40;98864.44;;;8.39;100.00
5238;BME280;2639;49.700;7.962;2023-12-28T09:04:43;98857.53;;;8.38;100.00
5238;BME280;2639;49.700;7.962;2023-12-28T09:05:45;98862.94;;;8.41;100.00
5238;BME280;2639;49.700;7.962;2023-12-28T09:06:48;98859.88;;;8.45;100.00
5238;BME280;2639;49.700;7.962;2023-12-28T09:07:49;98863.47;;;8.47;100.00
5238;BME280;2639;49.700;7.962;2023-12-28T09:08:54;98864.47;;;8.49;100.00
5238;BME280;2639;49.700;7.962;2023-12-28T09:09:56;98859.50;;;8.51;100.00
5238;BME280;2639;49.700;7.962;2023-12-28T09:10:58;98874.97;;;8.52;100.00
5238;BME280;2639;49.700;7.962;2023-12-28T09:12:00;98865.50;;;8.51;100.00
5238;BME280;2639;49.700;7.962;2023-12-28T09:13:04;98866.81;;;8.56;100.00
5238;BME280;2639;49.700;7.962;2023-12-28T09:14:06;98871.38;;;8.60;100.00
5238;BME280;2639;49.700;7.962;2023-12-28T09:15:09;98874.88;;;8.61;100.00
5238;BME280;2639;49.700;7.962;2023-12-28T09:16:13;98871.28;;;8.59;100.00
5238;BME280;2639;49.700;7.962;2023-12-28T09:17:15;98876.00;;;8.54;100.00
5238;BME280;2639;49.700;7.962;2023-12-28T09:18:18;98870.50;;;8.60;100.00
5238;BME280;2639;49.700;7.962;2023-12-28T09:19:20;98873.19;;;8.61;100.00
5238;BME280;2639;49.700;7.962;2023-12-28T09:20:23;98880.97;;;8.63;100.00
5238;BME280;2639;49.700;7.962;2023-12-28T09:21:25;98878.72;;;8.66;100.00
5238;BME280;2639;49.700;7.962;2023-12-28T09:22:28;98879.84;;;8.70;100.00
5238;BME280;2639;49.700;7.962;2023-12-28T09:23:32;98875.09;;;8.74;100.00
5238;BME280;2639;49.700;7.962;2023-12-28T09:24:36;98877.41;;;8.81;100.00
5238;BME280;2639;49.700;7.962;2023-12-28T09:25:40;98881.88;;;8.84;100.00
5238;BME280;2639;49.700;7.962;2023-12-28T09:26:42;98879.84;;;8.90;100.00
5238;BME280;2639;49.700;7.962;2023-12-28T09:27:44;98876.53;;;8.91;100.00
5238;BME280;2639;49.700;7.962;2023-12-28T09:28:47;98880.88;;;8.92;100.00
5238;BME280;2639;49.700;7.962;2023-12-28T09:29:48;98880.88;;;8.92;100.00
5238;BME280;2639;49.700;7.962;2023-12-28T09:30:51;98871.28;;;8.90;100.00
5238;BME280;2639;49.700;7.962;2023-12-28T09:31:53;98885.34;;;8.95;100.00
5238;BME280;2639;49.700;7.962;2023-12-28T09:32:56;98884.72;;;8.97;100.00
5238;BME280;2639;49.700;7.962;2023-12-28T09:33:58;98890.06;;;9.00;100.00
5238;BME280;2639;49.700;7.962;2023-12-28T09:53:32;98901.34;;;9.13;100.00
5238;BME280;2639;49.700;7.962;2023-12-28T09:54:35;98894.41;;;9.12;100.00
5238;BME280;2639;49.700;7.962;2023-12-28T09:55:37;98900.84;;;9.17;100.00
5238;BME280;2639;49.700;7.962;2023-12-28T09:56:40;98907.22;;;9.22;100.00
5238;BME280;2639;49.700;7.962;2023-12-28T09:57:42;98900.81;;;9.27;100.00
5238;BME280;2639;49.700;7.962;2023-12-28T09:58:46;98895.69;;;9.27;100.00
5238;BME280;2639;49.700;7.962;2023-12-28T10:05:26;98897.34;;;9.37;99.78
5238;BME280;2639;49.700;7.962;2023-12-28T10:06:29;98898.22;;;9.37;99.73
5238;BME280;2639;49.700;7.962;2023-12-28T10:07:31;98898.22;;;9.37;99.91
5238;BME280;2639;49.700;7.962;2023-12-28T10:08:35;98909.13;;;9.35;98.74
5238;BME280;2639;49.700;7.962;2023-12-28T10:09:52;98910.28;;;9.38;99.46
5238;BME280;2639;49.700;7.962;2023-12-28T10:10:57;98913.59;;;9.37;98.61
5238;BME280;2639;49.700;7.962;2023-12-28T10:12:03;98905.53;;;9.43;98.63
5238;BME280;2639;49.700;7.962;2023-12-28T10:13:08;98911.69;;;9.45;98.26
5238;BME280;2639;49.700;7.962;2023-12-28T10:14:11;98914.63;;;9.50;98.32
5238;BME280;2639;49.700;7.962;2023-12-28T10:19:33;98916.25;;;9.59;97.51
5238;BME280;2639;49.700;7.962;2023-12-28T10:20:36;98917.66;;;9.66;96.90
5238;BME280;2639;49.700;7.962;2023-12-28T10:21:39;98915.03;;;9.76;96.82
5238;BME280;2639;49.700;7.962;2023-12-28T10:22:41;98910.66;;;9.85;96.38
5238;BME280;2639;49.700;7.962;2023-12-28T10:23:45;98918.31;;;9.96;95.58
5238;BME280;2639;49.700;7.962;2023-12-28T10:24:48;98913.78;;;10.03;94.54
5238;BME280;2639;49.700;7.962;2023-12-28T10:25:50;98916.97;;;10.11;93.98
5238;BME280;2639;49.700;7.962;2023-12-28T10:26:55;98908.72;;;10.15;93.33
5238;BME280;2639;49.700;7.962;2023-12-28T10:27:57;98914.63;;;10.14;92.29
5238;BME280;2639;49.700;7.962;2023-12-28T10:29:01;98911.53;;;10.18;92.91
5238;BME280;2639;49.700;7.962;2023-12-28T10:30:04;98910.22;;;10.23;93.01
5238;BME280;2639;49.700;7.962;2023-12-28T10:31:07;98909.59;;;10.26;92.41
5238;BME280;2639;49.700;7.962;2023-12-28T10:32:11;98917.81;;;10.22;92.15
5238;BME280;2639;49.700;7.962;2023-12-28T10:33:13;98916.00;;;10.21;91.98
5238;BME280;2639;49.700;7.962;2023-12-28T10:34:18;98922.94;;;10.22;92.38
5238;BME280;2639;49.700;7.962;2023-12-28T10:35:20;98914.09;;;10.18;91.31
5238;BME280;2639;49.700;7.962;2023-12-28T10:36:24;98906.94;;;10.14;91.29
5238;BME280;2639;49.700;7.962;2023-12-28T10:37:27;98909.50;;;10.14;91.47
5238;BME280;2639;49.700;7.962;2023-12-28T10:38:32;98915.94;;;10.09;91.82
5238;BME280;2639;49.700;7.962;2023-12-28T10:39:40;98910.56;;;10.06;92.12
5238;BME280;2639;49.700;7.962;2023-12-28T10:40:46;98910.56;;;10.06;91.94
5238;BME280;2639;49.700;7.962;2023-12-28T10:41:51;98905.22;;;10.03;92.19
5238;BME280;2639;49.700;7.962;2023-12-28T10:42:57;98905.69;;;10.09;92.69
5238;BME280;2639;49.700;7.962;2023-12-28T10:44:04;98908.72;;;10.15;91.62
5238;BME280;2639;49.700;7.962;2023-12-28T10:45:11;98914.22;;;10.20;91.47
5238;BME280;2639;49.700;7.962;2023-12-28T10:46:21;98907.66;;;10.23;91.12
5238;BME280;2639;49.700;7.962;2023-12-28T10:47:25;98898.19;;;10.22;90.81
5238;BME280;2639;49.700;7.962;2023-12-28T10:48:33;98905.75;;;10.21;91.25
5238;BME280;2639;49.700;7.962;2023-12-28T10:49:41;98907.13;;;10.27;91.33
5238;BME280;2639;49.700;7.962;2023-12-28T10:50:47;98903.84;;;10.28;91.37
5238;BME280;2639;49.700;7.962;2023-12-28T10:51:52;98898.03;;;10.31;90.75
5238;BME280;2639;49.700;7.962;2023-12-28T10:53:00;98895.84;;;10.36;90.81
5238;BME280;2639;49.700;7.962;2023-12-28T10:54:15;98891.41;;;10.45;90.30
5238;BME280;2639;49.700;7.962;2023-12-28T10:55:30;98890.31;;;10.53;89.67
5238;BME280;2639;49.700;7.962;2023-12-28T10:56:44;98884.78;;;10.59;89.45
5238;BME280;2639;49.700;7.962;2023-12-28T10:57:54;98887.69;;;10.63;90.30
5238;BME280;2639;49.700;7.962;2023-12-28T10:59:09;98880.44;;;10.69;89.68
5238;BME280;2639;49.700;7.962;2023-12-28T11:00:20;98885.69;;;10.71;88.76
5238;BME280;2639;49.700;7.962;2023-12-28T11:01:28;98882.59;;;10.75;87.94
5238;BME280;2639;49.700;7.962;2023-12-28T11:02:38;98888.41;;;10.72;87.34
5238;BME280;2639;49.700;7.962;2023-12-28T11:03:42;98891.72;;;10.71;87.25
5238;BME280;2639;49.700;7.962;2023-12-28T11:04:48;98885.56;;;10.69;87.53
5238;BME280;2639;49.700;7.962;2023-12-28T11:05:53;98884.56;;;10.67;87.90
5238;BME280;2639;49.700;7.962;2023-12-28T11:06:56;98888.00;;;10.56;88.48
5238;BME280;2639;49.700;7.962;2023-12-28T11:07:59;98887.22;;;10.57;89.39
5238;BME280;2639;49.700;7.962;2023-12-28T11:09:02;98888.22;;;10.59;89.63
5238;BME280;2639;49.700;7.962;2023-12-28T11:10:09;98883.09;;;10.59;89.29
5238;BME280;2639;49.700;7.962;2023-12-28T11:11:14;98877.16;;;10.60;89.34
5238;BME280;2639;49.700;7.962;2023-12-28T11:12:18;98876.16;;;10.58;89.46
5238;BME280;2639;49.700;7.962;2023-12-28T11:13:21;98879.38;;;10.56;89.38
5238;BME280;2639;49.700;7.962;2023-12-28T11:14:27;98886.38;;;10.46;89.98
5238;BME280;2639;49.700;7.962;2023-12-28T11:15:30;98886.03;;;10.42;90.03
5238;BME280;2639;49.700;7.962;2023-12-28T11:16:33;98889.91;;;10.37;91.44
5238;BME280;2639;49.700;7.962;2023-12-28T11:17:37;98879.41;;;10.34;91.81
5238;BME280;2639;49.700;7.962;2023-12-28T11:18:41;98884.69;;;10.35;92.11
5238;BME280;2639;49.700;7.962;2023-12-28T11:19:44;98886.69;;;10.39;91.75
5238;BME280;2639;49.700;7.962;2023-12-28T11:20:48;98882.47;;;10.40;91.64
5238;BME280;2639;49.700;7.962;2023-12-28T11:21:51;98893.25;;;10.36;91.59
5238;BME280;2639;49.700;7.962;2023-12-28T11:22:56;98884.00;;;10.38;92.04
5238;BME280;2639;49.700;7.962;2023-12-28T11:23:59;98890.16;;;10.40;93.17
5238;BME280;2639;49.700;7.962;2023-12-28T11:25:03;98887.13;;;10.34;92.36
5238;BME280;2639;49.700;7.962;2023-12-28T11:26:16;98890.22;;;10.29;92.71
5238;BME280;2639;49.700;7.962;2023-12-28T11:27:20;98881.19;;;10.35;92.86
5238;BME280;2639;49.700;7.962;2023-12-28T11:28:23;98886.81;;;10.41;92.92
5238;BME280;2639;49.700;7.962;2023-12-28T11:29:29;98877.69;;;10.44;92.56
5238;BME280;2639;49.700;7.962;2023-12-28T11:30:31;98897.78;;;10.50;92.97
5238;BME280;2639;49.700;7.962;2023-12-28T11:31:34;98877.78;;;10.46;91.89
5238;BME280;2639;49.700;7.962;2023-12-28T11:32:37;98876.22;;;10.48;92.05
5238;BME280;2639;49.700;7.962;2023-12-28T11:33:44;98887.38;;;10.48;91.48
5238;BME280;2639;49.700;7.962;2023-12-28T11:34:56;98884.50;;;10.56;92.05
5238;BME280;2639;49.700;7.962;2023-12-28T11:35:59;98882.88;;;10.56;91.83
5238;BME280;2639;49.700;7.962;2023-12-28T11:37:04;98871.59;;;10.54;90.78
5238;BME280;2639;49.700;7.962;2023-12-28T11:38:09;98880.19;;;10.55;91.36
5238;BME280;2639;49.700;7.962;2023-12-28T11:39:20;98879.16;;;10.52;91.94
5238;BME280;2639;49.700;7.962;2023-12-28T11:40:23;98879.09;;;10.41;92.57
5238;BME280;2639;49.700;7.962;2023-12-28T11:41:26;98880.13;;;10.43;92.94
5238;BME280;2639;49.700;7.962;2023-12-28T11:42:29;98880.53;;;10.37;92.34
5238;BME280;2639;49.700;7.962;2023-12-28T11:43:34;98876.19;;;10.36;93.44
5238;BME280;2639;49.700;7.962;2023-12-28T11:44:40;98881.75;;;10.30;93.23
5238;BME280;2639;49.700;7.962;2023-12-28T11:45:47;98873.53;;;10.24;93.37
5238;BME280;2639;49.700;7.962;2023-12-28T11:46:51;98883.56;;;10.21;94.62
5238;BME280;2639;49.700;7.962;2023-12-28T11:48:00;98879.78;;;10.28;94.27
5238;BME280;2639;49.700;7.962;2023-12-28T11:49:03;98865.03;;;10.25;94.10
5238;BME280;2639;49.700;7.962;2023-12-28T11:50:07;98867.63;;;10.25;94.71
5238;BME280;2639;49.700;7.962;2023-12-28T11:51:10;98879.41;;;10.23;94.21
5238;BME280;2639;49.700;7.962;2023-12-28T11:52:22;98870.97;;;10.24;94.77
5238;BME280;2639;49.700;7.962;2023-12-28T11:53:24;98866.06;;;10.27;94.93
5238;BME280;2639;49.700;7.962;2023-12-28T11:54:27;98862.47;;;10.25;94.23
5238;BME280;2639;49.700;7.962;2023-12-28T11:55:30;98859.41;;;10.29;94.60
5238;BME280;2639;49.700;7.962;2023-12-28T11:56:35;98857.22;;;10.34;94.61
5238;BME280;2639;49.700;7.962;2023-12-28T11:57:38;98861.69;;;10.37;94.17
5238;BME280;2639;49.700;7.962;2023-12-28T11:58:41;98853.44;;;10.41;94.10
5238;BME280;2639;49.700;7.962;2023-12-28T11:59:47;98858.56;;;10.41;93.99
5238;BME280;2639;49.700;7.962;2023-12-28T12:00:50;98867.94;;;10.40;94.49
5238;BME280;2639;49.700;7.962;2023-12-28T12:01:53;98857.25;;;10.46;94.58
5238;BME280;2639;49.700;7.962;2023-12-28T12:02:57;98856.38;;;10.45;93.95
5238;BME280;2639;49.700;7.962;2023-12-28T12:03:59;98850.34;;;10.45;94.33
5238;BME280;2639;49.700;7.962;2023-12-28T12:05:01;98852.38;;;10.49;94.08
5238;BME280;2639;49.700;7.962;2023-12-28T12:06:04;98850.78;;;10.51;93.53
5238;BME280;2639;49.700;7.962;2023-12-28T12:07:06;98847.88;;;10.46;94.32
5238;BME280;2639;49.700;7.962;2023-12-28T12:08:10;98849.81;;;10.49;94.20
5238;BME280;2639;49.700;7.962;2023-12-28T12:09:15;98856.53;;;10.37;94.16
5238;BME280;2639;49.700;7.962;2023-12-28T12:10:19;98858.34;;;10.38;95.15
5238;BME280;2639;49.700;7.962;2023-12-28T12:11:23;98842.69;;;10.35;94.22
5238;BME280;2639;49.700;7.962;2023-12-28T12:12:29;98847.94;;;10.36;95.18
5238;BME280;2639;49.700;7.962;2023-12-28T12:13:31;98843.50;;;10.23;95.82
5238;BME280;2639;49.700;7.962;2023-12-28T12:14:34;98841.81;;;10.12;96.39
5238;BME280;2639;49.700;7.962;2023-12-28T12:15:36;98833.38;;;10.03;97.61
5238;BME280;2639;49.700;7.962;2023-12-28T12:16:39;98837.00;;;9.95;98.31
5238;BME280;2639;49.700;7.962;2023-12-28T12:17:42;98840.47;;;9.95;99.18
5238;BME280;2639;49.700;7.962;2023-12-28T12:18:44;98842.38;;;9.98;100.00
5238;BME280;2639;49.700;7.962;2023-12-28T12:19:47;98839.81;;;9.98;100.00
5238;BME280;2639;49.700;7.962;2023-12-28T12:20:55;98841.38;;;9.96;100.00
5238;BME280;2639;49.700;7.962;2023-12-28T12:21:58;98835.31;;;9.95;100.00
5238;BME280;2639;49.700;7.962;2023-12-28T12:23:00;98838.25;;;10.00;100.00
5238;BME280;2639;49.700;7.962;2023-12-28T12:24:04;98836.97;;;10.05;100.00
5238;BME280;2639;49.700;7.962;2023-12-28T12:25:07;98832.19;;;10.09;100.00
5238;BME280;2639;49.700;7.962;2023-12-28T12:26:11;98826.44;;;10.02;100.00
5238;BME280;2639;49.700;7.962;2023-12-28T12:27:14;98814.16;;;9.98;100.00
5238;BME280;2639;49.700;7.962;2023-12-28T12:28:18;98821.31;;;10.02;100.00
5238;BME280;2639;49.700;7.962;2023-12-28T12:29:20;98823.13;;;10.03;100.00
5238;BME280;2639;49.700;7.962;2023-12-28T12:30:30;98824.41;;;9.98;100.00
5238;BME280;2639;49.700;7.962;2023-12-28T12:31:32;98821.31;;;10.02;100.00
5238;BME280;2639;49.700;7.962;2023-12-28T12:32:35;98826.22;;;9.99;100.00
5238;BME280;2639;49.700;7.962;2023-12-28T12:33:39;98829.31;;;9.95;100.00
5238;BME280;2639;49.700;7.962;2023-12-28T12:34:42;98823.69;;;9.88;100.00
5238;BME280;2639;49.700;7.962;2023-12-28T12:35:45;98825.00;;;9.83;100.00
5238;BME280;2639;49.700;7.962;2023-12-28T12:36:47;98825.53;;;9.79;100.00
5238;BME280;2639;49.700;7.962;2023-12-28T12:37:50;98830.13;;;9.83;100.00
5238;BME280;2639;49.700;7.962;2023-12-28T12:38:53;98830.13;;;9.83;100.00
5238;BME280;2639;49.700;7.962;2023-12-28T12:39:56;98833.72;;;9.85;100.00
5238;BME280;2639;49.700;7.962;2023-12-28T12:40:58;98834.97;;;9.90;100.00
5238;BME280;2639;49.700;7.962;2023-12-28T12:42:01;98829.31;;;9.95;100.00
5238;BME280;2639;49.700;7.962;2023-12-28T12:43:05;98837.22;;;9.98;100.00
5238;BME280;2639;49.700;7.962;2023-12-28T12:44:12;98838.81;;;9.96;100.00
5238;BME280;2639;49.700;7.962;2023-12-28T12:45:15;98827.03;;;9.87;100.00
5238;BME280;2639;49.700;7.962;2023-12-28T12:46:17;98826.38;;;9.90;100.00
5238;BME280;2639;49.700;7.962;2023-12-28T12:47:20;98831.66;;;9.92;100.00
5238;BME280;2639;49.700;7.962;2023-12-28T12:48:23;98834.44;;;9.95;100.00
5238;BME280;2639;49.700;7.962;2023-12-28T12:49:26;98833.94;;;9.88;100.00
5238;BME280;2639;49.700;7.962;2023-12-28T12:50:28;98833.59;;;9.84;100.00
5238;BME280;2639;49.700;7.962;2023-12-28T12:51:31;98830.63;;;9.89;100.00
5238;BME280;2639;49.700;7.962;2023-12-28T12:52:34;98834.22;;;9.92;100.00
5238;BME280;2639;49.700;7.962;2023-12-28T12:53:37;98837.53;;;9.90;100.00
5238;BME280;2639;49.700;7.962;2023-12-28T12:54:40;98825.72;;;9.93;100.00
5238;BME280;2639;49.700;7.962;2023-12-28T12:55:42;98828.56;;;9.96;100.00
5238;BME280;2639;49.700;7.962;2023-12-28T12:56:46;98832.41;;;9.90;100.00
5238;BME280;2639;49.700;7.962;2023-12-28T12:57:49;98825.00;;;9.83;100.00
5238;BME280;2639;49.700;7.962;2023-12-28T12:58:53;98824.41;;;9.76;100.00
5238;BME280;2639;49.700;7.962;2023-12-28T12:59:57;98822.97;;;9.79;100.00
5238;BME280;2639;49.700;7.962;2023-12-28T13:01:01;98822.34;;;9.82;100.00
5238;BME280;2639;49.700;7.962;2023-12-28T13:02:03;98815.28;;;9.79;100.00
5238;BME280;2639;49.700;7.962;2023-12-28T13:03:07;98814.53;;;9.80;100.00
5238;BME280;2639;49.700;7.962;2023-12-28T13:04:10;98817.84;;;9.79;100.00
5238;BME280;2639;49.700;7.962;2023-12-28T13:05:13;98805.38;;;9.84;100.00
5238;BME280;2639;49.700;7.962;2023-12-28T13:06:16;98802.94;;;9.85;100.00
5238;BME280;2639;49.700;7.962;2023-12-28T13:07:18;98808.50;;;9.80;100.00
5238;BME280;2639;49.700;7.962;2023-12-28T13:08:21;98810.94;;;9.78;100.00
5238;BME280;2639;49.700;7.962;2023-12-28T13:09:23;98811.16;;;9.81;100.00
5238;BME280;2639;49.700;7.962;2023-12-28T13:10:25;98805.16;;;9.81;100.00
5238;BME280;2639;49.700;7.962;2023-12-28T13:11:28;98806.22;;;9.73;100.00
5238;BME280;2639;49.700;7.962;2023-12-28T13:12:30;98805.31;;;9.72;100.00
5238;BME280;2639;49.700;7.962;2023-12-28T13:13:33;98805.31;;;9.72;100.00
5238;BME280;2639;49.700;7.962;2023-12-28T13:14:35;98802.00;;;9.73;100.00
5238;BME280;2639;49.700;7.962;2023-12-28T13:15:39;98805.31;;;9.72;100.00
5238;BME280;2639;49.700;7.962;2023-12-28T13:16:41;98806.34;;;9.74;100.00
5238;BME280;2639;49.700;7.962;2023-12-28T13:17:45;98804.03;;;9.77;100.00
5238;BME280;2639;49.700;7.962;2023-12-28T13:18:47;98796.56;;;9.80;100.00
5238;BME280;2639;49.700;7.962;2023-12-28T13:19:50;98783.75;;;9.80;100.00
5238;BME280;2639;49.700;7.962;2023-12-28T13:20:52;98798.91;;;9.77;100.00
5238;BME280;2639;49.700;7.962;2023-12-28T13:21:55;98795.31;;;9.75;100.00
5238;BME280;2639;49.700;7.962;2023-12-28T13:22:57;98800.44;;;9.75;100.00
5238;BME280;2639;49.700;7.962;2023-12-28T13:23:59;98788.00;;;9.80;100.00
5238;BME280;2639;49.700;7.962;2023-12-28T13:25:04;98797.16;;;9.88;100.00
5238;BME280;2639;49.700;7.962;2023-12-28T13:26:07;98794.72;;;9.89;100.00
5238;BME280;2639;49.700;7.962;2023-12-28T13:27:09;98793.47;;;9.84;100.00
5238;BME280;2639;49.700;7.962;2023-12-28T13:28:12;98786.91;;;9.88;100.00
5238;BME280;2639;49.700;7.962;2023-12-28T13:29:14;98783.97;;;9.83;100.00
5238;BME280;2639;49.700;7.962;2023-12-28T13:30:17;98785.22;;;9.88;100.00
5238;BME280;2639;49.700;7.962;2023-12-28T13:31:22;98787.56;;;9.85;100.00
5238;BME280;2639;49.700;7.962;2023-12-28T13:32:26;98778.84;;;9.83;100.00
5238;BME280;2639;49.700;7.962;2023-12-28T13:33:28;98783.97;;;9.83;100.00
5238;BME280;2639;49.700;7.962;2023-12-28T13:34:32;98777.59;;;9.78;100.00
5238;BME280;2639;49.700;7.962;2023-12-28T13:35:34;98787.06;;;9.79;100.00
5238;BME280;2639;49.700;7.962;2023-12-28T13:36:37;98788.00;;;9.80;100.00
5238;BME280;2639;49.700;7.962;2023-12-28T13:37:40;98788.88;;;9.80;100.00
5238;BME280;2639;49.700;7.962;2023-12-28T13:38:43;98788.28;;;9.73;100.00
5238;BME280;2639;49.700;7.962;2023-12-28T13:39:45;98788.81;;;9.68;100.00
5238;BME280;2639;49.700;7.962;2023-12-28T13:40:49;98792.50;;;9.72;100.00
5238;BME280;2639;49.700;7.962;2023-12-28T13:41:51;98794.81;;;9.69;100.00
5238;BME280;2639;49.700;7.962;2023-12-28T13:42:54;98794.09;;;9.60;100.00
5238;BME280;2639;49.700;7.962;2023-12-28T13:43:56;98787.19;;;9.59;100.00
5238;BME280;2639;49.700;7.962;2023-12-28T13:45:04;98790.78;;;9.61;100.00
5238;BME280;2639;49.700;7.962;2023-12-28T13:46:06;98785.66;;;9.61;100.00
5238;BME280;2639;49.700;7.962;2023-12-28T13:47:11;98788.09;;;9.59;100.00
5238;BME280;2639;49.700;7.962;2023-12-28T13:48:13;98776.22;;;9.50;100.00
5238;BME280;2639;49.700;7.962;2023-12-28T13:49:16;98776.22;;;9.50;100.00
5238;BME280;2639;49.700;7.962;2023-12-28T13:50:18;98780.69;;;9.52;100.00
5238;BME280;2639;49.700;7.962;2023-12-28T13:51:21;98770.44;;;9.52;100.00
5238;BME280;2639;49.700;7.962;2023-12-28T13:52:24;98769.91;;;9.56;100.00
5238;BME280;2639;49.700;7.962;2023-12-28T13:53:26;98772.84;;;9.61;100.00
5238;BME280;2639;49.700;7.962;2023-12-28T13:54:28;98771.25;;;9.63;100.00
5238;BME280;2639;49.700;7.962;2023-12-28T13:55:31;98784.34;;;9.66;100.00
5238;BME280;2639;49.700;7.962;2023-12-28T13:56:35;98775.09;;;9.68;100.00
5238;BME280;2639;49.700;7.962;2023-12-28T13:57:38;98775.88;;;9.67;100.00
5238;BME280;2639;49.700;7.962;2023-12-28T13:58:40;98774.75;;;9.63;100.00
5238;BME280;2639;49.700;7.962;2023-12-28T13:59:43;98773.81;;;9.63;100.00
5238;BME280;2639;49.700;7.962;2023-12-28T14:00:45;98770.28;;;9.61;100.00
5238;BME280;2639;49.700;7.962;2023-12-28T14:01:48;98760.03;;;9.61;100.00
5238;BME280;2639;49.700;7.962;2023-12-28T14:02:52;98766.56;;;9.57;100.00
5238;BME280;2639;49.700;7.962;2023-12-28T14:03:55;98769.78;;;9.55;100.00
5238;BME280;2639;49.700;7.962;2023-12-28T14:04:58;98773.38;;;9.57;100.00
5238;BME280;2639;49.700;7.962;2023-12-28T14:06:00;98766.44;;;9.56;100.00
5238;BME280;2639;49.700;7.962;2023-12-28T14:07:04;98770.31;;;9.51;100.00
5238;BME280;2639;49.700;7.962;2023-12-28T14:08:06;98774.91;;;9.55;100.00
5238;BME280;2639;49.700;7.962;2023-12-28T14:09:09;98767.97;;;9.54;100.00
5238;BME280;2639;49.700;7.962;2023-12-28T14:10:10;98766.44;;;9.56;100.00
5238;BME280;2639;49.700;7.962;2023-12-28T14:11:14;98771.31;;;9.53;100.00
5238;BME280;2639;49.700;7.962;2023-12-28T14:12:17;98770.72;;;9.45;100.00
5238;BME280;2639;49.700;7.962;2023-12-28T14:13:20;98778.16;;;9.42;100.00
5238;BME280;2639;49.700;7.962;2023-12-28T14:14:24;98768.56;;;9.39;100.00
5238;BME280;2639;49.700;7.962;2023-12-28T14:15:27;98768.31;;;9.36;100.00
5238;BME280;2639;49.700;7.962;2023-12-28T14:16:30;98772.13;;;9.41;100.00
5238;BME280;2639;49.700;7.962;2023-12-28T14:17:32;98767.00;;;9.41;100.00
5238;BME280;2639;49.700;7.962;2023-12-28T14:18:36;98767.00;;;9.41;100.00
5238;BME280;2639;49.700;7.962;2023-12-28T14:19:38;98764.88;;;9.36;100.00
5238;BME280;2639;49.700;7.962;2023-12-28T14:20:43;98765.53;;;9.33;100.00
5238;BME280;2639;49.700;7.962;2023-12-28T14:21:45;98760.03;;;9.29;100.00
5238;BME280;2639;49.700;7.962;2023-12-28T14:22:48;98763.78;;;9.22;100.00
5238;BME280;2639;49.700;7.962;2023-12-28T14:23:51;98771.47;;;9.22;100.00
5238;BME280;2639;49.700;7.962;2023-12-28T14:24:53;98758.38;;;9.19;100.00
5238;BME280;2639;49.700;7.962;2023-12-28T14:25:57;98767.09;;;9.21;100.00
5238;BME280;2639;49.700;7.962;2023-12-28T14:26:59;98760.31;;;9.21;100.00
5238;BME280;2639;49.700;7.962;2023-12-28T14:28:03;98754.03;;;9.18;100.00
5238;BME280;2639;49.700;7.962;2023-12-28T14:29:05;98756.84;;;9.21;100.00
5238;BME280;2639;49.700;7.962;2023-12-28T14:30:09;98758.66;;;9.22;100.00
5238;BME280;2639;49.700;7.962;2023-12-28T14:31:12;98756.75;;;9.19;100.00
5238;BME280;2639;49.700;7.962;2023-12-28T14:32:16;98760.06;;;9.18;100.00
5238;BME280;2639;49.700;7.962;2023-12-28T14:33:18;98762.25;;;9.14;100.00
5238;BME280;2639;49.700;7.962;2023-12-28T14:34:23;98766.75;;;9.06;100.00
5238;BME280;2639;49.700;7.962;2023-12-28T14:35:26;98757.28;;;9.05;100.00
5238;BME280;2639;49.700;7.962;2023-12-28T14:36:31;98770.22;;;9.06;100.00
5238;BME280;2639;49.700;7.962;2023-12-28T14:37:33;98769.19;;;9.04;100.00
5238;BME280;2639;49.700;7.962;2023-12-28T14:38:36;98755.63;;;9.05;100.00
5238;BME280;2639;49.700;7.962;2023-12-28T14:39:39;98760.84;;;9.07;100.00
5238;BME280;2639;49.700;7.962;2023-12-28T14:40:42;98768.91;;;9.12;100.00
5238;BME280;2639;49.700;7.962;2023-12-28T14:41:44;98761.22;;;9.12;100.00
5238;BME280;2639;49.700;7.962;2023-12-28T14:42:47;98760.09;;;9.08;100.00
5238;BME280;2639;49.700;7.962;2023-12-28T14:43:49;98763.69;;;9.10;100.00
5238;BME280;2639;49.700;7.962;2023-12-28T14:44:52;98765.47;;;9.11;100.00
5238;BME280;2639;49.700;7.962;2023-12-28T14:45:54;98776.59;;;9.12;100.00
5238;BME280;2639;49.700;7.962;2023-12-28T14:46:57;98776.13;;;9.05;100.00
5238;BME280;2639;49.700;7.962;2023-12-28T14:47:59;98772.53;;;9.03;100.00
5238;BME280;2639;49.700;7.962;2023-12-28T14:49:03;98773.28;;;9.02;100.00
5238;BME280;2639;49.700;7.962;2023-12-28T14:50:07;98761.41;;;9.03;100.00
5238;BME280;2639;49.700;7.962;2023-12-28T14:51:11;98769.31;;;9.06;100.00
5238;BME280;2639;49.700;7.962;2023-12-28T14:52:13;98769.19;;;9.04;100.00